sensor_id;sensor_type;location;lat;lon;timestamp;temperature;humidity
6964;DHT22;3522;50.856;7.278;2023-08-07T00:01:53;12.30;99.90
6964;DHT22;3522;50.856;7.278;2023-08-07T00:04:20;12.30;99.90
6964;DHT22;3522;50.856;7.278;2023-08-07T00:06:46;12.30;99.90
6964;DHT22;3522;50.856;7.278;2023-08-07T00:09:13;12.40;99.90
6964;DHT22;3522;50.856;7.278;2023-08-07T00:11:39;12.30;99.90
6964;DHT22;3522;50.856;7.278;2023-08-07T00:14:06;12.30;99.90
6964;DHT22;3522;50.856;7.278;2023-08-07T00:16:34;12.30;99.90
6964;DHT22;3522;50.856;7.278;2023-08-07T00:19:01;12.30;99.90
6964;DHT22;3522;50.856;7.278;2023-08-07T00:21:28;12.30;99.90
6964;DHT22;3522;50.856;7.278;2023-08-07T00:23:55;12.30;99.90
6964;DHT22;3522;50.856;7.278;2023-08-07T00:26:21;12.30;99.90
6964;DHT22;3522;50.856;7.278;2023-08-07T00:28:48;12.30;99.90
6964;DHT22;3522;50.856;7.278;2023-08-07T00:31:14;12.20;99.90
6964;DHT22;3522;50.856;7.278;2023-08-07T00:33:42;12.20;99.90
6964;DHT22;3522;50.856;7.278;2023-08-07T00:36:09;12.20;99.90
6964;DHT22;3522;50.856;7.278;2023-08-07T00:38:35;12.20;99.90
6964;DHT22;3522;50.856;7.278;2023-08-07T00:41:02;12.20;99.90
6964;DHT22;3522;50.856;7.278;2023-08-07T00:43:28;12.20;99.90
6964;DHT22;3522;50.856;7.278;2023-08-07T00:45:55;12.10;99.90
6964;DHT22;3522;50.856;7.278;2023-08-07T00:48:21;12.10;99.90
6964;DHT22;3522;50.856;7.278;2023-08-07T00:50:49;12.10;99.90
6964;DHT22;3522;50.856;7.278;2023-08-07T00:53:17;12.10;99.90
6964;DHT22;3522;50.856;7.278;2023-08-07T00:55:44;12.10;99.90
6964;DHT22;3522;50.856;7.278;2023-08-07T00:58:10;12.10;99.90
6964;DHT22;3522;50.856;7.278;2023-08-07T01:00:37;12.10;99.90
6964;DHT22;3522;50.856;7.278;2023-08-07T01:03:07;12.10;99.90
6964;DHT22;3522;50.856;7.278;2023-08-07T01:05:33;12.10;99.90
6964;DHT22;3522;50.856;7.278;2023-08-07T01:08:02;12.10;99.90
6964;DHT22;3522;50.856;7.278;2023-08-07T01:10:31;12.10;99.90
6964;DHT22;3522;50.856;7.278;2023-08-07T01:13:03;12.10;99.90
6964;DHT22;3522;50.856;7.278;2023-08-07T01:15:31;12.10;99.90
6964;DHT22;3522;50.856;7.278;2023-08-07T01:17:58;12.00;99.90
6964;DHT22;3522;50.856;7.278;2023-08-07T01:20:26;12.00;99.90
6964;DHT22;3522;50.856;7.278;2023-08-07T01:22:53;12.00;99.90
6964;DHT22;3522;50.856;7.278;2023-08-07T01:25:20;12.00;99.90
6964;DHT22;3522;50.856;7.278;2023-08-07T01:27:50;12.00;99.90
6964;DHT22;3522;50.856;7.278;2023-08-07T01:30:20;12.00;99.90
6964;DHT22;3522;50.856;7.278;2023-08-07T01:33:05;12.00;99.90
6964;DHT22;3522;50.856;7.278;2023-08-07T01:35:36;11.90;99.90
6964;DHT22;3522;50.856;7.278;2023-08-07T01:38:06;11.90;99.90
6964;DHT22;3522;50.856;7.278;2023-08-07T01:40:33;11.90;99.90
6964;DHT22;3522;50.856;7.278;2023-08-07T01:43:01;11.90;99.90
6964;DHT22;3522;50.856;7.278;2023-08-07T01:45:28;12.00;99.90
6964;DHT22;3522;50.856;7.278;2023-08-07T01:47:55;12.00;99.90
6964;DHT22;3522;50.856;7.278;2023-08-07T01:50:21;11.90;99.90
6964;DHT22;3522;50.856;7.278;2023-08-07T01:52:48;12.00;99.90
6964;DHT22;3522;50.856;7.278;2023-08-07T01:55:16;11.90;99.90
6964;DHT22;3522;50.856;7.278;2023-08-07T01:57:43;11.90;99.90
6964;DHT22;3522;50.856;7.278;2023-08-07T02:00:10;11.90;99.90
6964;DHT22;3522;50.856;7.278;2023-08-07T02:02:37;11.90;99.90
6964;DHT22;3522;50.856;7.278;2023-08-07T02:05:03;11.90;99.90
6964;DHT22;3522;50.856;7.278;2023-08-07T02:07:30;11.90;99.90
6964;DHT22;3522;50.856;7.278;2023-08-07T02:09:57;11.90;99.90
6964;DHT22;3522;50.856;7.278;2023-08-07T02:12:25;11.90;99.90
6964;DHT22;3522;50.856;7.278;2023-08-07T02:14:53;11.90;99.90
6964;DHT22;3522;50.856;7.278;2023-08-07T02:17:20;11.90;99.90
6964;DHT22;3522;50.856;7.278;2023-08-07T02:19:47;11.90;99.90
6964;DHT22;3522;50.856;7.278;2023-08-07T02:22:13;11.90;99.90
6964;DHT22;3522;50.856;7.278;2023-08-07T02:24:40;11.90;99.90
6964;DHT22;3522;50.856;7.278;2023-08-07T02:27:06;11.90;99.90
6964;DHT22;3522;50.856;7.278;2023-08-07T02:29:34;11.90;99.90
6964;DHT22;3522;50.856;7.278;2023-08-07T02:32:01;11.90;99.90
6964;DHT22;3522;50.856;7.278;2023-08-07T02:34:28;11.90;99.90
6964;DHT22;3522;50.856;7.278;2023-08-07T02:36:54;11.90;99.90
6964;DHT22;3522;50.856;7.278;2023-08-07T02:39:21;11.90;99.90
6964;DHT22;3522;50.856;7.278;2023-08-07T02:41:52;11.90;99.90
6964;DHT22;3522;50.856;7.278;2023-08-07T02:44:18;12.00;99.90
6964;DHT22;3522;50.856;7.278;2023-08-07T02:46:47;12.00;99.90
6964;DHT22;3522;50.856;7.278;2023-08-07T02:49:13;11.90;99.90
6964;DHT22;3522;50.856;7.278;2023-08-07T02:51:40;11.90;99.90
6964;DHT22;3522;50.856;7.278;2023-08-07T02:54:07;11.90;99.90
6964;DHT22;3522;50.856;7.278;2023-08-07T02:56:33;11.90;99.90
6964;DHT22;3522;50.856;7.278;2023-08-07T02:59:00;11.90;99.90
6964;DHT22;3522;50.856;7.278;2023-08-07T03:01:27;11.90;99.90
6964;DHT22;3522;50.856;7.278;2023-08-07T03:03:55;12.00;99.90
6964;DHT22;3522;50.856;7.278;2023-08-07T03:06:21;11.90;99.90
6964;DHT22;3522;50.856;7.278;2023-08-07T03:08:48;11.90;99.90
6964;DHT22;3522;50.856;7.278;2023-08-07T03:11:14;11.90;99.90
6964;DHT22;3522;50.856;7.278;2023-08-07T03:13:41;11.80;99.90
6964;DHT22;3522;50.856;7.278;2023-08-07T03:16:09;11.80;99.90
6964;DHT22;3522;50.856;7.278;2023-08-07T03:18:36;11.80;99.90
6964;DHT22;3522;50.856;7.278;2023-08-07T03:21:04;11.80;99.90
6964;DHT22;3522;50.856;7.278;2023-08-07T03:23:30;11.80;99.90
6964;DHT22;3522;50.856;7.278;2023-08-07T03:26:03;11.80;99.90
6964;DHT22;3522;50.856;7.278;2023-08-07T03:28:30;11.80;99.90
6964;DHT22;3522;50.856;7.278;2023-08-07T03:30:57;11.80;99.90
6964;DHT22;3522;50.856;7.278;2023-08-07T03:33:23;11.80;99.90
6964;DHT22;3522;50.856;7.278;2023-08-07T03:35:50;11.90;99.90
6964;DHT22;3522;50.856;7.278;2023-08-07T03:38:18;11.80;99.90
6964;DHT22;3522;50.856;7.278;2023-08-07T03:40:45;11.80;99.90
6964;DHT22;3522;50.856;7.278;2023-08-07T03:43:11;11.70;99.90
6964;DHT22;3522;50.856;7.278;2023-08-07T03:45:38;11.90;99.90
6964;DHT22;3522;50.856;7.278;2023-08-07T03:48:05;11.70;99.90
6964;DHT22;3522;50.856;7.278;2023-08-07T03:50:32;11.70;99.90
6964;DHT22;3522;50.856;7.278;2023-08-07T03:53:00;11.70;99.90
6964;DHT22;3522;50.856;7.278;2023-08-07T03:55:28;11.70;99.90
6964;DHT22;3522;50.856;7.278;2023-08-07T03:57:54;11.70;99.90
6964;DHT22;3522;50.856;7.278;2023-08-07T04:00:21;11.70;99.90
6964;DHT22;3522;50.856;7.278;2023-08-07T04:02:48;11.70;99.90
6964;DHT22;3522;50.856;7.278;2023-08-07T04:05:14;11.70;99.90
6964;DHT22;3522;50.856;7.278;2023-08-07T04:07:41;11.70;99.90
6964;DHT22;3522;50.856;7.278;2023-08-07T04:10:08;11.70;99.90
6964;DHT22;3522;50.856;7.278;2023-08-07T04:12:36;11.70;99.90
6964;DHT22;3522;50.856;7.278;2023-08-07T04:15:03;11.70;99.90
6964;DHT22;3522;50.856;7.278;2023-08-07T04:17:29;11.70;99.90
6964;DHT22;3522;50.856;7.278;2023-08-07T04:19:56;11.70;99.90
6964;DHT22;3522;50.856;7.278;2023-08-07T04:22:22;11.70;99.90
6964;DHT22;3522;50.856;7.278;2023-08-07T04:24:49;11.70;99.90
6964;DHT22;3522;50.856;7.278;2023-08-07T04:27:15;11.70;99.90
6964;DHT22;3522;50.856;7.278;2023-08-07T04:29:43;11.70;99.90
6964;DHT22;3522;50.856;7.278;2023-08-07T04:32:10;11.80;99.90
6964;DHT22;3522;50.856;7.278;2023-08-07T04:34:36;11.80;99.90
6964;DHT22;3522;50.856;7.278;2023-08-07T04:37:03;11.80;99.90
6964;DHT22;3522;50.856;7.278;2023-08-07T04:39:30;11.80;99.90
6964;DHT22;3522;50.856;7.278;2023-08-07T04:41:57;11.80;99.90
6964;DHT22;3522;50.856;7.278;2023-08-07T04:44:24;11.80;99.90
6964;DHT22;3522;50.856;7.278;2023-08-07T04:46:51;11.70;99.90
6964;DHT22;3522;50.856;7.278;2023-08-07T04:49:18;11.80;99.90
6964;DHT22;3522;50.856;7.278;2023-08-07T04:51:45;11.80;99.90
6964;DHT22;3522;50.856;7.278;2023-08-07T04:54:11;11.80;99.90
6964;DHT22;3522;50.856;7.278;2023-08-07T04:56:38;11.70;99.90
6964;DHT22;3522;50.856;7.278;2023-08-07T04:59:06;11.80;99.90
6964;DHT22;3522;50.856;7.278;2023-08-07T05:01:32;11.80;99.90
6964;DHT22;3522;50.856;7.278;2023-08-07T05:04:00;11.80;99.90
6964;DHT22;3522;50.856;7.278;2023-08-07T05:06:27;11.80;99.90
6964;DHT22;3522;50.856;7.278;2023-08-07T05:08:54;11.80;99.90
6964;DHT22;3522;50.856;7.278;2023-08-07T05:11:20;11.90;99.90
6964;DHT22;3522;50.856;7.278;2023-08-07T05:13:47;11.80;99.90
6964;DHT22;3522;50.856;7.278;2023-08-07T05:16:13;11.80;99.90
6964;DHT22;3522;50.856;7.278;2023-08-07T05:18:40;11.80;99.90
6964;DHT22;3522;50.856;7.278;2023-08-07T05:21:08;11.90;99.90
6964;DHT22;3522;50.856;7.278;2023-08-07T05:23:34;11.80;99.90
6964;DHT22;3522;50.856;7.278;2023-08-07T05:26:01;11.80;99.90
6964;DHT22;3522;50.856;7.278;2023-08-07T05:28:28;11.80;99.90
6964;DHT22;3522;50.856;7.278;2023-08-07T05:30:55;11.80;99.90
6964;DHT22;3522;50.856;7.278;2023-08-07T05:33:21;11.80;99.90
6964;DHT22;3522;50.856;7.278;2023-08-07T05:35:48;11.80;99.90
6964;DHT22;3522;50.856;7.278;2023-08-07T05:38:16;11.90;99.90
6964;DHT22;3522;50.856;7.278;2023-08-07T05:40:43;11.80;99.90
6964;DHT22;3522;50.856;7.278;2023-08-07T05:43:09;11.80;99.90
6964;DHT22;3522;50.856;7.278;2023-08-07T05:45:36;11.80;99.90
6964;DHT22;3522;50.856;7.278;2023-08-07T05:48:03;11.80;99.90
6964;DHT22;3522;50.856;7.278;2023-08-07T05:50:29;11.80;99.90
6964;DHT22;3522;50.856;7.278;2023-08-07T05:52:56;11.80;99.90
6964;DHT22;3522;50.856;7.278;2023-08-07T05:55:24;11.80;99.90
6964;DHT22;3522;50.856;7.278;2023-08-07T05:57:50;11.80;99.90
6964;DHT22;3522;50.856;7.278;2023-08-07T06:00:17;11.80;99.90
6964;DHT22;3522;50.856;7.278;2023-08-07T06:02:44;11.90;99.90
6964;DHT22;3522;50.856;7.278;2023-08-07T06:05:11;11.80;99.90
6964;DHT22;3522;50.856;7.278;2023-08-07T06:07:40;11.90;99.90
6964;DHT22;3522;50.856;7.278;2023-08-07T06:10:07;11.90;99.90
6964;DHT22;3522;50.856;7.278;2023-08-07T06:12:35;11.90;99.90
6964;DHT22;3522;50.856;7.278;2023-08-07T06:15:01;11.90;99.90
6964;DHT22;3522;50.856;7.278;2023-08-07T06:17:28;11.90;99.90
6964;DHT22;3522;50.856;7.278;2023-08-07T06:19:55;11.90;99.90
6964;DHT22;3522;50.856;7.278;2023-08-07T06:22:21;11.90;99.90
6964;DHT22;3522;50.856;7.278;2023-08-07T06:24:48;11.90;99.90
6964;DHT22;3522;50.856;7.278;2023-08-07T06:27:14;11.90;99.90
6964;DHT22;3522;50.856;7.278;2023-08-07T06:29:42;11.90;99.90
6964;DHT22;3522;50.856;7.278;2023-08-07T06:32:09;11.90;99.90
6964;DHT22;3522;50.856;7.278;2023-08-07T06:34:36;11.90;99.90
6964;DHT22;3522;50.856;7.278;2023-08-07T06:37:03;12.00;99.90
6964;DHT22;3522;50.856;7.278;2023-08-07T06:39:30;12.00;99.90
6964;DHT22;3522;50.856;7.278;2023-08-07T06:41:57;12.00;99.90
6964;DHT22;3522;50.856;7.278;2023-08-07T06:44:25;12.00;99.90
6964;DHT22;3522;50.856;7.278;2023-08-07T06:46:53;12.00;99.90
6964;DHT22;3522;50.856;7.278;2023-08-07T06:49:19;12.00;99.90
6964;DHT22;3522;50.856;7.278;2023-08-07T06:51:46;12.00;99.90
6964;DHT22;3522;50.856;7.278;2023-08-07T06:54:12;12.00;99.90
6964;DHT22;3522;50.856;7.278;2023-08-07T06:56:39;12.10;99.90
6964;DHT22;3522;50.856;7.278;2023-08-07T06:59:07;12.00;99.90
6964;DHT22;3522;50.856;7.278;2023-08-07T07:01:34;11.90;99.90
6964;DHT22;3522;50.856;7.278;2023-08-07T07:04:02;12.00;99.90
6964;DHT22;3522;50.856;7.278;2023-08-07T07:06:29;11.90;99.90
6964;DHT22;3522;50.856;7.278;2023-08-07T07:08:56;11.90;99.90
6964;DHT22;3522;50.856;7.278;2023-08-07T07:11:22;11.90;99.90
6964;DHT22;3522;50.856;7.278;2023-08-07T07:13:49;11.90;99.90
6964;DHT22;3522;50.856;7.278;2023-08-07T07:16:16;11.90;99.90
6964;DHT22;3522;50.856;7.278;2023-08-07T07:18:43;11.90;99.90
6964;DHT22;3522;50.856;7.278;2023-08-07T07:21:11;12.00;99.90
6964;DHT22;3522;50.856;7.278;2023-08-07T07:23:37;11.90;99.90
6964;DHT22;3522;50.856;7.278;2023-08-07T07:26:04;11.90;99.90
6964;DHT22;3522;50.856;7.278;2023-08-07T07:28:30;11.90;99.90
6964;DHT22;3522;50.856;7.278;2023-08-07T07:30:57;11.90;99.90
6964;DHT22;3522;50.856;7.278;2023-08-07T07:33:23;11.90;99.90
6964;DHT22;3522;50.856;7.278;2023-08-07T07:35:50;11.90;99.90
6964;DHT22;3522;50.856;7.278;2023-08-07T07:38:18;12.00;99.90
6964;DHT22;3522;50.856;7.278;2023-08-07T07:40:44;12.00;99.90
6964;DHT22;3522;50.856;7.278;2023-08-07T07:43:11;12.00;99.90
6964;DHT22;3522;50.856;7.278;2023-08-07T07:45:37;12.00;99.90
6964;DHT22;3522;50.856;7.278;2023-08-07T07:48:04;12.10;99.90
6964;DHT22;3522;50.856;7.278;2023-08-07T07:50:31;12.00;99.90
6964;DHT22;3522;50.856;7.278;2023-08-07T07:52:58;12.10;99.90
6964;DHT22;3522;50.856;7.278;2023-08-07T07:55:26;12.10;99.90
6964;DHT22;3522;50.856;7.278;2023-08-07T07:57:53;12.10;99.90
6964;DHT22;3522;50.856;7.278;2023-08-07T08:00:20;12.10;99.90
6964;DHT22;3522;50.856;7.278;2023-08-07T08:02:48;12.10;99.90
6964;DHT22;3522;50.856;7.278;2023-08-07T08:05:14;12.10;99.90
6964;DHT22;3522;50.856;7.278;2023-08-07T08:07:41;12.10;99.90
6964;DHT22;3522;50.856;7.278;2023-08-07T08:10:08;12.10;99.90
6964;DHT22;3522;50.856;7.278;2023-08-07T08:12:36;12.10;99.90
6964;DHT22;3522;50.856;7.278;2023-08-07T08:15:03;12.10;99.90
6964;DHT22;3522;50.856;7.278;2023-08-07T08:17:30;12.20;99.90
6964;DHT22;3522;50.856;7.278;2023-08-07T08:19:56;12.20;99.90
6964;DHT22;3522;50.856;7.278;2023-08-07T08:22:23;12.20;99.90
6964;DHT22;3522;50.856;7.278;2023-08-07T08:24:50;12.30;99.90
6964;DHT22;3522;50.856;7.278;2023-08-07T08:27:16;12.30;99.90
6964;DHT22;3522;50.856;7.278;2023-08-07T08:29:44;12.30;99.90
6964;DHT22;3522;50.856;7.278;2023-08-07T08:32:11;12.20;99.90
6964;DHT22;3522;50.856;7.278;2023-08-07T08:34:38;12.20;99.90
6964;DHT22;3522;50.856;7.278;2023-08-07T08:37:04;12.30;99.90
6964;DHT22;3522;50.856;7.278;2023-08-07T08:39:31;12.30;99.90
6964;DHT22;3522;50.856;7.278;2023-08-07T08:41:57;12.30;99.90
6964;DHT22;3522;50.856;7.278;2023-08-07T08:44:25;12.30;99.90
6964;DHT22;3522;50.856;7.278;2023-08-07T08:46:53;12.30;99.90
6964;DHT22;3522;50.856;7.278;2023-08-07T08:49:23;12.30;99.90
6964;DHT22;3522;50.856;7.278;2023-08-07T08:51:53;12.30;99.90
6964;DHT22;3522;50.856;7.278;2023-08-07T08:54:19;12.40;99.90
6964;DHT22;3522;50.856;7.278;2023-08-07T08:56:46;12.40;99.90
6964;DHT22;3522;50.856;7.278;2023-08-07T08:59:13;12.50;99.90
6964;DHT22;3522;50.856;7.278;2023-08-07T09:01:43;12.40;99.90
6964;DHT22;3522;50.856;7.278;2023-08-07T09:04:11;12.50;99.90
6964;DHT22;3522;50.856;7.278;2023-08-07T09:06:38;12.40;99.90
6964;DHT22;3522;50.856;7.278;2023-08-07T09:09:05;12.60;99.90
6964;DHT22;3522;50.856;7.278;2023-08-07T09:11:31;12.60;99.90
6964;DHT22;3522;50.856;7.278;2023-08-07T09:13:59;12.60;99.90
6964;DHT22;3522;50.856;7.278;2023-08-07T09:16:26;12.70;99.90
6964;DHT22;3522;50.856;7.278;2023-08-07T09:18:53;12.70;99.90
6964;DHT22;3522;50.856;7.278;2023-08-07T09:21:22;12.70;99.90
6964;DHT22;3522;50.856;7.278;2023-08-07T09:23:48;12.70;99.90
6964;DHT22;3522;50.856;7.278;2023-08-07T09:26:15;12.80;99.90
6964;DHT22;3522;50.856;7.278;2023-08-07T09:28:47;12.90;99.90
6964;DHT22;3522;50.856;7.278;2023-08-07T09:31:14;12.90;99.90
6964;DHT22;3522;50.856;7.278;2023-08-07T09:33:40;12.90;99.90
6964;DHT22;3522;50.856;7.278;2023-08-07T09:36:07;13.00;99.90
6964;DHT22;3522;50.856;7.278;2023-08-07T09:38:35;13.00;99.90
6964;DHT22;3522;50.856;7.278;2023-08-07T09:41:02;13.00;99.90
6964;DHT22;3522;50.856;7.278;2023-08-07T09:43:29;13.00;99.90
6964;DHT22;3522;50.856;7.278;2023-08-07T09:46:01;13.00;99.90
6964;DHT22;3522;50.856;7.278;2023-08-07T09:48:28;13.00;99.90
6964;DHT22;3522;50.856;7.278;2023-08-07T09:50:58;13.00;99.90
6964;DHT22;3522;50.856;7.278;2023-08-07T09:53:25;13.00;99.90
6964;DHT22;3522;50.856;7.278;2023-08-07T09:55:53;13.00;99.90
6964;DHT22;3522;50.856;7.278;2023-08-07T09:58:20;13.00;99.90
6964;DHT22;3522;50.856;7.278;2023-08-07T10:00:47;13.10;99.90
6964;DHT22;3522;50.856;7.278;2023-08-07T10:03:14;13.00;99.90
6964;DHT22;3522;50.856;7.278;2023-08-07T10:05:42;13.00;99.90
6964;DHT22;3522;50.856;7.278;2023-08-07T10:08:09;12.90;99.90
6964;DHT22;3522;50.856;7.278;2023-08-07T10:10:36;12.90;99.90
6964;DHT22;3522;50.856;7.278;2023-08-07T10:13:04;12.90;99.90
6964;DHT22;3522;50.856;7.278;2023-08-07T10:15:31;12.90;99.90
6964;DHT22;3522;50.856;7.278;2023-08-07T10:17:59;13.00;99.90
6964;DHT22;3522;50.856;7.278;2023-08-07T10:20:27;13.10;99.90
6964;DHT22;3522;50.856;7.278;2023-08-07T10:22:54;13.30;99.90
6964;DHT22;3522;50.856;7.278;2023-08-07T10:25:23;13.30;99.90
6964;DHT22;3522;50.856;7.278;2023-08-07T10:27:51;13.30;99.90
6964;DHT22;3522;50.856;7.278;2023-08-07T10:30:21;13.40;99.90
6964;DHT22;3522;50.856;7.278;2023-08-07T10:32:48;13.70;99.90
6964;DHT22;3522;50.856;7.278;2023-08-07T10:35:25;14.00;99.90
6964;DHT22;3522;50.856;7.278;2023-08-07T10:37:52;14.20;99.90
6964;DHT22;3522;50.856;7.278;2023-08-07T10:40:19;14.50;99.90
6964;DHT22;3522;50.856;7.278;2023-08-07T10:42:58;14.60;99.90
6964;DHT22;3522;50.856;7.278;2023-08-07T10:45:26;14.80;99.90
6964;DHT22;3522;50.856;7.278;2023-08-07T10:47:56;15.00;99.90
6964;DHT22;3522;50.856;7.278;2023-08-07T10:50:27;15.00;99.90
6964;DHT22;3522;50.856;7.278;2023-08-07T10:52:53;15.20;99.90
6964;DHT22;3522;50.856;7.278;2023-08-07T10:55:20;15.60;99.90
6964;DHT22;3522;50.856;7.278;2023-08-07T10:57:48;16.00;99.90
6964;DHT22;3522;50.856;7.278;2023-08-07T11:00:15;16.50;99.90
6964;DHT22;3522;50.856;7.278;2023-08-07T11:02:43;16.80;99.90
6964;DHT22;3522;50.856;7.278;2023-08-07T11:05:14;17.10;99.90
6964;DHT22;3522;50.856;7.278;2023-08-07T11:07:41;17.50;99.90
6964;DHT22;3522;50.856;7.278;2023-08-07T11:10:09;17.90;99.90
6964;DHT22;3522;50.856;7.278;2023-08-07T11:12:38;18.00;99.90
6964;DHT22;3522;50.856;7.278;2023-08-07T11:15:05;17.90;99.90
6964;DHT22;3522;50.856;7.278;2023-08-07T11:17:32;18.00;99.90
6964;DHT22;3522;50.856;7.278;2023-08-07T11:20:00;18.10;99.90
6964;DHT22;3522;50.856;7.278;2023-08-07T11:22:28;18.40;99.90
6964;DHT22;3522;50.856;7.278;2023-08-07T11:24:54;18.60;99.90
6964;DHT22;3522;50.856;7.278;2023-08-07T11:27:21;18.80;99.90
6964;DHT22;3522;50.856;7.278;2023-08-07T11:29:48;18.70;99.90
6964;DHT22;3522;50.856;7.278;2023-08-07T11:32:15;18.40;99.90
6964;DHT22;3522;50.856;7.278;2023-08-07T11:34:46;18.10;99.90
6964;DHT22;3522;50.856;7.278;2023-08-07T11:37:16;17.70;99.90
6964;DHT22;3522;50.856;7.278;2023-08-07T11:39:43;17.60;99.90
6964;DHT22;3522;50.856;7.278;2023-08-07T11:42:10;17.50;99.90
6964;DHT22;3522;50.856;7.278;2023-08-07T11:44:36;17.30;99.90
6964;DHT22;3522;50.856;7.278;2023-08-07T11:47:03;17.30;99.90
6964;DHT22;3522;50.856;7.278;2023-08-07T11:49:30;17.60;99.90
6964;DHT22;3522;50.856;7.278;2023-08-07T11:51:57;17.70;99.90
6964;DHT22;3522;50.856;7.278;2023-08-07T11:54:26;18.10;99.90
6964;DHT22;3522;50.856;7.278;2023-08-07T11:56:52;18.50;99.90
6964;DHT22;3522;50.856;7.278;2023-08-07T11:59:19;18.80;99.90
6964;DHT22;3522;50.856;7.278;2023-08-07T12:01:46;18.80;99.90
6964;DHT22;3522;50.856;7.278;2023-08-07T12:04:12;18.90;99.90
6964;DHT22;3522;50.856;7.278;2023-08-07T12:06:45;18.70;99.90
6964;DHT22;3522;50.856;7.278;2023-08-07T12:09:18;18.20;99.90
6964;DHT22;3522;50.856;7.278;2023-08-07T12:11:46;17.80;99.90
6964;DHT22;3522;50.856;7.278;2023-08-07T12:14:13;17.70;99.90
6964;DHT22;3522;50.856;7.278;2023-08-07T12:16:43;18.00;99.90
6964;DHT22;3522;50.856;7.278;2023-08-07T12:19:10;18.30;99.90
6964;DHT22;3522;50.856;7.278;2023-08-07T12:21:36;18.10;99.90
6964;DHT22;3522;50.856;7.278;2023-08-07T12:24:04;17.60;99.90
6964;DHT22;3522;50.856;7.278;2023-08-07T12:26:33;17.50;99.90
6964;DHT22;3522;50.856;7.278;2023-08-07T12:29:00;17.80;99.90
6964;DHT22;3522;50.856;7.278;2023-08-07T12:31:27;18.10;99.90
6964;DHT22;3522;50.856;7.278;2023-08-07T12:33:54;18.40;99.90
6964;DHT22;3522;50.856;7.278;2023-08-07T12:36:20;18.60;99.90
6964;DHT22;3522;50.856;7.278;2023-08-07T12:38:47;18.60;99.90
6964;DHT22;3522;50.856;7.278;2023-08-07T12:41:13;18.30;99.90
6964;DHT22;3522;50.856;7.278;2023-08-07T12:43:40;18.40;99.90
6964;DHT22;3522;50.856;7.278;2023-08-07T12:46:08;18.70;99.90
6964;DHT22;3522;50.856;7.278;2023-08-07T12:48:35;18.80;99.90
6964;DHT22;3522;50.856;7.278;2023-08-07T12:51:01;18.90;99.90
6964;DHT22;3522;50.856;7.278;2023-08-07T12:53:28;19.10;99.90
6964;DHT22;3522;50.856;7.278;2023-08-07T12:55:57;19.10;99.90
6964;DHT22;3522;50.856;7.278;2023-08-07T12:58:23;19.00;99.90
6964;DHT22;3522;50.856;7.278;2023-08-07T13:00:51;19.20;99.90
6964;DHT22;3522;50.856;7.278;2023-08-07T13:03:19;19.20;99.90
6964;DHT22;3522;50.856;7.278;2023-08-07T13:05:46;19.20;99.90
6964;DHT22;3522;50.856;7.278;2023-08-07T13:08:12;19.00;99.90
6964;DHT22;3522;50.856;7.278;2023-08-07T13:10:39;18.50;99.90
6964;DHT22;3522;50.856;7.278;2023-08-07T13:13:06;18.20;99.90
6964;DHT22;3522;50.856;7.278;2023-08-07T13:15:32;18.20;99.90
6964;DHT22;3522;50.856;7.278;2023-08-07T13:17:59;18.30;99.90
6964;DHT22;3522;50.856;7.278;2023-08-07T13:20:27;18.60;99.90
6964;DHT22;3522;50.856;7.278;2023-08-07T13:22:58;18.80;99.90
6964;DHT22;3522;50.856;7.278;2023-08-07T13:25:25;19.10;99.90
6964;DHT22;3522;50.856;7.278;2023-08-07T13:27:52;19.40;99.90
6964;DHT22;3522;50.856;7.278;2023-08-07T13:30:18;19.70;99.90
6964;DHT22;3522;50.856;7.278;2023-08-07T13:32:45;20.10;99.90
6964;DHT22;3522;50.856;7.278;2023-08-07T13:35:11;20.40;99.90
6964;DHT22;3522;50.856;7.278;2023-08-07T13:37:39;20.40;99.90
6964;DHT22;3522;50.856;7.278;2023-08-07T13:40:06;20.50;99.90
6964;DHT22;3522;50.856;7.278;2023-08-07T13:42:33;20.60;99.90
6964;DHT22;3522;50.856;7.278;2023-08-07T13:45:00;20.70;99.90
6964;DHT22;3522;50.856;7.278;2023-08-07T13:47:27;20.70;99.90
6964;DHT22;3522;50.856;7.278;2023-08-07T13:49:53;20.40;99.90
6964;DHT22;3522;50.856;7.278;2023-08-07T13:52:20;20.30;99.90
6964;DHT22;3522;50.856;7.278;2023-08-07T13:54:48;20.10;99.90
6964;DHT22;3522;50.856;7.278;2023-08-07T13:57:15;20.10;99.90
6964;DHT22;3522;50.856;7.278;2023-08-07T13:59:41;20.10;99.90
6964;DHT22;3522;50.856;7.278;2023-08-07T14:02:08;20.20;99.90
6964;DHT22;3522;50.856;7.278;2023-08-07T14:04:35;20.40;99.90
6964;DHT22;3522;50.856;7.278;2023-08-07T14:07:01;20.50;99.90
6964;DHT22;3522;50.856;7.278;2023-08-07T14:09:29;20.60;99.90
6964;DHT22;3522;50.856;7.278;2023-08-07T14:11:57;20.70;99.90
6964;DHT22;3522;50.856;7.278;2023-08-07T14:14:23;20.70;99.90
6964;DHT22;3522;50.856;7.278;2023-08-07T14:16:50;20.60;99.90
6964;DHT22;3522;50.856;7.278;2023-08-07T14:19:16;20.60;99.90
6964;DHT22;3522;50.856;7.278;2023-08-07T14:21:43;20.30;99.90
6964;DHT22;3522;50.856;7.278;2023-08-07T14:24:09;20.00;99.90
6964;DHT22;3522;50.856;7.278;2023-08-07T14:26:36;20.00;99.90
6964;DHT22;3522;50.856;7.278;2023-08-07T14:29:04;19.70;99.90
6964;DHT22;3522;50.856;7.278;2023-08-07T14:31:30;19.30;99.90
6964;DHT22;3522;50.856;7.278;2023-08-07T14:33:57;19.00;99.90
6964;DHT22;3522;50.856;7.278;2023-08-07T14:36:24;18.70;99.90
6964;DHT22;3522;50.856;7.278;2023-08-07T14:38:50;18.90;99.90
6964;DHT22;3522;50.856;7.278;2023-08-07T14:41:17;19.20;99.90
6964;DHT22;3522;50.856;7.278;2023-08-07T14:43:43;19.40;99.90
6964;DHT22;3522;50.856;7.278;2023-08-07T14:46:12;19.70;99.90
6964;DHT22;3522;50.856;7.278;2023-08-07T14:48:38;19.80;99.90
6964;DHT22;3522;50.856;7.278;2023-08-07T14:51:05;19.70;99.90
6964;DHT22;3522;50.856;7.278;2023-08-07T14:53:32;19.70;99.90
6964;DHT22;3522;50.856;7.278;2023-08-07T14:55:59;19.40;99.90
6964;DHT22;3522;50.856;7.278;2023-08-07T14:58:26;19.00;99.90
6964;DHT22;3522;50.856;7.278;2023-08-07T15:00:53;18.60;99.90
6964;DHT22;3522;50.856;7.278;2023-08-07T15:03:21;18.20;99.90
6964;DHT22;3522;50.856;7.278;2023-08-07T15:05:48;17.80;99.90
6964;DHT22;3522;50.856;7.278;2023-08-07T15:08:14;17.60;99.90
6964;DHT22;3522;50.856;7.278;2023-08-07T15:10:41;17.40;99.90
6964;DHT22;3522;50.856;7.278;2023-08-07T15:13:08;17.40;99.90
6964;DHT22;3522;50.856;7.278;2023-08-07T15:15:34;17.70;99.90
6964;DHT22;3522;50.856;7.278;2023-08-07T15:18:01;17.90;99.90
6964;DHT22;3522;50.856;7.278;2023-08-07T15:20:30;18.30;99.90
6964;DHT22;3522;50.856;7.278;2023-08-07T15:22:56;18.50;99.90
6964;DHT22;3522;50.856;7.278;2023-08-07T15:25:23;18.50;99.90
6964;DHT22;3522;50.856;7.278;2023-08-07T15:27:49;18.70;99.90
6964;DHT22;3522;50.856;7.278;2023-08-07T15:30:16;18.90;99.90
6964;DHT22;3522;50.856;7.278;2023-08-07T15:32:43;19.00;99.90
6964;DHT22;3522;50.856;7.278;2023-08-07T15:35:10;19.10;99.90
6964;DHT22;3522;50.856;7.278;2023-08-07T15:37:38;19.10;99.90
6964;DHT22;3522;50.856;7.278;2023-08-07T15:40:05;18.90;99.90
6964;DHT22;3522;50.856;7.278;2023-08-07T15:42:31;18.80;99.90
6964;DHT22;3522;50.856;7.278;2023-08-07T15:44:58;18.60;99.90
6964;DHT22;3522;50.856;7.278;2023-08-07T15:47:25;18.50;99.90
6964;DHT22;3522;50.856;7.278;2023-08-07T15:49:51;18.50;99.90
6964;DHT22;3522;50.856;7.278;2023-08-07T15:52:18;18.40;99.90
6964;DHT22;3522;50.856;7.278;2023-08-07T15:54:46;18.20;99.90
6964;DHT22;3522;50.856;7.278;2023-08-07T15:57:12;18.00;99.90
6964;DHT22;3522;50.856;7.278;2023-08-07T15:59:39;17.80;99.90
6964;DHT22;3522;50.856;7.278;2023-08-07T16:02:06;17.70;99.90